Thursday, February 22, 2018, 5:04 PM GMT
Back to Local

CYRJ, Roberval, Que.

Location: , , Canada Lat: 48.517
Local Time: 5:04 PM GMT (17:04 GMT) Lon: -72.267
Time Zone: GMT Elev: 587 ft

Show me the last for .
Show Decoded

2018-02-22 16:00 METAR CYRJ 221600Z 08004KT 25SM BKN028 M14/M18 A3072 RMK SC6 SLP421 =
2018-02-22 15:00 METAR CYRJ 221500Z 29004KT 250V310 25SM -SN BKN029 M13/M18 A3071 RMK SC7 SLP420
                 =
2018-02-22 14:41 METAR CYRJ 221441Z 25004KT 25SM -SN BKN029 M13/M18 A3071 RMK SC7 SLP418 =
2018-02-22 14:00 METAR CYRJ 221400Z 25005KT 40SM BKN029 M14/M19 A3071 RMK SC7 SLP418 =
2018-02-22 13:00 METAR CYRJ 221300Z 25006KT 40SM FEW031 SCT090 BKN220 M17/M21 A3070 RMK SC1AC3CI2
                 SLP414 =
2018-02-22 12:00 METAR CYRJ 221200Z 23006KT 40SM FEW130 SCT220 M19/M22 A3068 RMK AC2CI2 SLP410 =
2018-02-22 11:00 METAR CYRJ 221100Z 24005KT 25SM FEW220 M19/M22 A3067 RMK CI1 CI TR SLP407 =
2018-02-22 10:00 METAR CYRJ 221000Z 23004KT 25SM SKC M19/M22 A3067 RMK SLP407 =
2018-02-22 09:00 METAR CYRJ 220900Z 26004KT 25SM SKC M17/M21 A3067 RMK SLP402 =
2018-02-22 08:00 METAR CYRJ 220800Z 25005KT 25SM SKC M17/M21 A3066 RMK SLP397 =
2018-02-22 07:00 METAR CYRJ 220700Z 26005KT 25SM SKC M16/M20 A3065 RMK SLP396 =
2018-02-22 06:00 METAR CYRJ 220600Z 25004KT 25SM SKC M15/M19 A3064 RMK PRESRR SLP391 =
2018-02-22 05:00 METAR CYRJ 220500Z 28006KT 25SM SKC M14/M19 A3060 RMK PRESRR SLP376 =
2018-02-22 04:00 METAR CYRJ 220400Z 29009KT 25SM FEW220 M13/M19 A3056 RMK CI1 CI TR PRESRR SLP365
                 =

Support USWX by starting your Amazon purchase here.